Izki — V7XV2 — position and weather

sailwx.info

Track history (hours):
 
Tides and Currents Weather Stations Pressure Air Temp Water Temp Dewpoint Dewpoint Depression Visibility Wind Speed Wind Dir Waves Ship Positions

Izki

Last reported at 2015-May-25 17:29 UTC. Time now 2015-May-29 00:14 UTC.
Position N 01°10' E 103°42'.

Length 333 m; draft 11 m.

Type: Tanker. MMSI: 538004578.

Date/timePositionNaut miles runAvg speedWind from/ knotsBaromVisibWave heightAir tempDewpointWater temp
2015-May-25 17:29N 01°10' E 103°42'1 0.1
2015-May-25 11:31N 01°11' E 103°42'0 0.1
2015-May-25 08:04N 01°10' E 103°42'0 0.0
2015-May-25 07:31N 01°10' E 103°42'0 0.0
2015-May-25 02:28N 01°10' E 103°42'0 0.0
2015-May-25 00:09N 01°10' E 103°42'0 0.0
2015-May-24 21:29N 01°10' E 103°42'6 5.3
2015-May-24 20:26N 01°12' E 103°48'0 0.2
2015-May-24 19:32N 01°12' E 103°48'0 0.2
2015-May-24 18:17N 01°12' E 103°47'0 0.1
2015-May-24 17:32N 01°12' E 103°47'0 0.1
2015-May-24 16:29N 01°11' E 103°47'0 0.0
2015-May-24 15:17N 01°11' E 103°47'0 0.0
2015-May-24 14:29N 01°11' E 103°47'0 0.0
2015-May-24 13:23N 01°11' E 103°47'0 0.0
2015-May-24 11:29N 01°11' E 103°47'0 0.1
2015-May-24 10:17N 01°11' E 103°47'0 0.1
2015-May-24 09:23N 01°11' E 103°47'0 0.0
2015-May-24 08:24N 01°11' E 103°47'0 0.0
2015-May-24 07:30N 01°11' E 103°47'0 0.2
2015-May-24 05:20N 01°12' E 103°48'0 0.1
2015-May-24 04:08N 01°12' E 103°48'0 0.0
2015-May-24 03:29N 01°12' E 103°48'0 0.0
2015-May-24 02:23N 01°12' E 103°48'0 0.0
2015-May-24 00:29N 01°12' E 103°48'0 0.0
2015-May-23 23:05N 01°12' E 103°48'0 0.0
2015-May-23 20:29N 01°12' E 103°48'0 0.0
2015-May-23 19:32N 01°12' E 103°48'0 0.3
2015-May-23 18:32N 01°12' E 103°47'0 0.1
2015-May-23 16:29N 01°11' E 103°47'0 0.0
2015-May-23 15:32N 01°11' E 103°47'0 0.0
2015-May-23 14:17N 01°11' E 103°47'0 0.0
2015-May-23 13:20N 01°11' E 103°47'0 0.0
2015-May-23 12:29N 01°11' E 103°47'0 0.0
2015-May-23 11:32N 01°11' E 103°47'0 0.0
2015-May-23 10:29N 01°11' E 103°47'0 0.0
2015-May-23 09:23N 01°11' E 103°47'0 0.1
2015-May-23 08:22N 01°11' E 103°47'0 0.1
2015-May-23 07:28N 01°11' E 103°47'0 0.0
2015-May-23 06:30N 01°11' E 103°47'0 0.3
2015-May-23 05:32N 01°11' E 103°47'2 1.8
2015-May-23 04:29N 01°09' E 103°46'70 7.7
2015-May-22 19:27N 01°40' E 102°43'1211.5
2015-May-22 18:22N 01°45' E 102°32'911.4
2015-May-22 17:33N 01°49' E 102°24'  
Track history (hours):
 
Tides and Currents Weather Stations Pressure Air Temp Water Temp Dewpoint Dewpoint Depression Visibility Wind Speed Wind Dir Waves Ship Positions

Izki

Last reported at 2015-May-25 17:29 UTC. Time now 2015-May-29 00:14 UTC.
Position N 01°10' E 103°42'.

Length 333 m; draft 11 m.

Type: Tanker. MMSI: 538004578.

Date/timePositionNaut miles runAvg speedWind from/ knotsBaromVisibWave heightAir tempDewpointWater temp
2015-May-25 17:29N 01°10' E 103°42'1 0.1
2015-May-25 11:31N 01°11' E 103°42'0 0.1
2015-May-25 08:04N 01°10' E 103°42'0 0.0
2015-May-25 07:31N 01°10' E 103°42'0 0.0
2015-May-25 02:28N 01°10' E 103°42'0 0.0
2015-May-25 00:09N 01°10' E 103°42'0 0.0
2015-May-24 21:29N 01°10' E 103°42'6 5.3
2015-May-24 20:26N 01°12' E 103°48'0 0.2
2015-May-24 19:32N 01°12' E 103°48'0 0.2
2015-May-24 18:17N 01°12' E 103°47'0 0.1
2015-May-24 17:32N 01°12' E 103°47'0 0.1
2015-May-24 16:29N 01°11' E 103°47'0 0.0
2015-May-24 15:17N 01°11' E 103°47'0 0.0
2015-May-24 14:29N 01°11' E 103°47'0 0.0
2015-May-24 13:23N 01°11' E 103°47'0 0.0
2015-May-24 11:29N 01°11' E 103°47'0 0.1
2015-May-24 10:17N 01°11' E 103°47'0 0.1
2015-May-24 09:23N 01°11' E 103°47'0 0.0
2015-May-24 08:24N 01°11' E 103°47'0 0.0
2015-May-24 07:30N 01°11' E 103°47'0 0.2
2015-May-24 05:20N 01°12' E 103°48'0 0.1
2015-May-24 04:08N 01°12' E 103°48'0 0.0
2015-May-24 03:29N 01°12' E 103°48'0 0.0
2015-May-24 02:23N 01°12' E 103°48'0 0.0
2015-May-24 00:29N 01°12' E 103°48'0 0.0
2015-May-23 23:05N 01°12' E 103°48'0 0.0
2015-May-23 20:29N 01°12' E 103°48'0 0.0
2015-May-23 19:32N 01°12' E 103°48'0 0.3
2015-May-23 18:32N 01°12' E 103°47'0 0.1
2015-May-23 16:29N 01°11' E 103°47'0 0.0
2015-May-23 15:32N 01°11' E 103°47'0 0.0
2015-May-23 14:17N 01°11' E 103°47'0 0.0
2015-May-23 13:20N 01°11' E 103°47'0 0.0
2015-May-23 12:29N 01°11' E 103°47'0 0.0
2015-May-23 11:32N 01°11' E 103°47'0 0.0
2015-May-23 10:29N 01°11' E 103°47'0 0.0
2015-May-23 09:23N 01°11' E 103°47'0 0.1
2015-May-23 08:22N 01°11' E 103°47'0 0.1
2015-May-23 07:28N 01°11' E 103°47'0 0.0
2015-May-23 06:30N 01°11' E 103°47'0 0.3
2015-May-23 05:32N 01°11' E 103°47'2 1.8
2015-May-23 04:29N 01°09' E 103°46'70 7.7
2015-May-22 19:27N 01°40' E 102°43'1211.5
2015-May-22 18:22N 01°45' E 102°32'911.4
2015-May-22 17:33N 01°49' E 102°24'  

Dump ship's entire track history